Darstellungsparameter: Aktuell verwendete Einstellungen:
Skalierung der Graphiken ... ?
xyx+y,   Skalierungsfaktor:      Skalierung: Modus: x, Faktor: 1
Darstellungszeitraum ... ?
Vom - - bis: - -   Zeitraum: 17.01.2020 - 17.01.2020
Min/Max/Avg-Anzeige ... ?
Zeige MMA aktuell
Zeige MMA Monat
Zeige MMA alles
Zeige --A aktuell
Zeige --A Monat
Zeige --A alles
Keine MMA-Anzeige
MMA:
Keine MMA-Graphiken
MMA-Basis: 17.01.2020 - 17.01.2020
Quicknavigation für Darstellung... ?
Tage:      1T, 2T, 3T, 5T -1T -2T -3T -5T +1T +2T +3T +5T
Wochen: 1W, 2W, 3W -1W -2W -3W +1W +2W +3W
Monate: 1M, 3M, 6M -1M -3M -6M +1M +3M +6M
Jahre:    1J, 3J, 5J, 10J -1J -3J -5J -10J +1J +3J +5J +10J
Nutze für die Darstellung ... ?
Originaldaten oder Mittelwerte auf ...
Stundenbasis Tagesbasis Wochenbasis
Monatsbasis Jahresbasis      Datenbasis: Original-Daten
Darstellen als:
Statistik (Auto) Statistik J:M      Darstellung:
Zur Graphik,    zurück zur Übersicht aller Sensoren.
 
Tabellarische Datenbersicht: ?
 
Sensor: Nr:Datum:Temp:Feuchte:Taupunkt:
Aussen-T/F 1 17-01-2020 00:00:00 6.8 C 93 % 5.75 C
2 17-01-2020 00:05:00 6.7 C 93 % 5.65 C
3 17-01-2020 00:10:00 6.6 C 93 % 5.55 C
4 17-01-2020 00:15:00 6.5 C 93 % 5.45 C
5 17-01-2020 00:20:00 6.5 C 93 % 5.45 C
6 17-01-2020 00:25:00 6.4 C 93 % 5.35 C
7 17-01-2020 00:30:00 6.4 C 94 % 5.51 C
8 17-01-2020 00:35:00 6.3 C 94 % 5.41 C
9 17-01-2020 00:40:00 6.2 C 94 % 5.31 C
10 17-01-2020 00:45:00 6.2 C 94 % 5.31 C
11 17-01-2020 00:50:00 6.1 C 94 % 5.21 C
12 17-01-2020 00:55:00 6.1 C 94 % 5.21 C
13 17-01-2020 01:00:00 6 C 94 % 5.11 C
14 17-01-2020 01:05:00 5.9 C 94 % 5.01 C
15 17-01-2020 01:10:00 5.9 C 94 % 5.01 C
16 17-01-2020 01:15:00 5.8 C 94 % 4.91 C
17 17-01-2020 01:20:00 5.8 C 94 % 4.91 C
18 17-01-2020 01:25:00 5.7 C 94 % 4.81 C
19 17-01-2020 01:30:00 5.7 C 94 % 4.81 C
20 17-01-2020 01:35:00 5.6 C 94 % 4.71 C
21 17-01-2020 01:40:00 5.6 C 95 % 4.86 C
22 17-01-2020 01:45:00 5.5 C 95 % 4.76 C
23 17-01-2020 01:50:00 5.5 C 95 % 4.76 C
24 17-01-2020 01:55:00 5.4 C 95 % 4.66 C
25 17-01-2020 02:00:00 5.7 C 95 % 4.96 C
Sensor: Nr:Datum:Temp:Feuchte:Taupunkt:
Aussen-T/F 26 17-01-2020 02:05:00 6.2 C 96 % 5.61 C
27 17-01-2020 02:10:00 6.1 C 95 % 5.36 C
28 17-01-2020 02:15:00 5.8 C 94 % 4.91 C
29 17-01-2020 02:20:00 5.6 C 94 % 4.71 C
30 17-01-2020 02:25:00 5.4 C 94 % 4.51 C
31 17-01-2020 02:30:00 5.3 C 94 % 4.41 C
32 17-01-2020 02:35:00 5.1 C 94 % 4.22 C
33 17-01-2020 02:40:00 5.1 C 94 % 4.22 C
34 17-01-2020 02:45:00 4.9 C 94 % 4.02 C
35 17-01-2020 02:50:00 4.9 C 95 % 4.17 C
36 17-01-2020 02:55:00 4.9 C 95 % 4.17 C
37 17-01-2020 03:00:00 4.9 C 95 % 4.17 C
38 17-01-2020 03:05:00 4.8 C 95 % 4.07 C
39 17-01-2020 03:10:00 4.8 C 95 % 4.07 C
40 17-01-2020 03:15:00 4.7 C 95 % 3.97 C
41 17-01-2020 03:20:00 4.7 C 95 % 3.97 C
42 17-01-2020 03:25:00 4.6 C 95 % 3.87 C
43 17-01-2020 03:30:00 4.6 C 95 % 3.87 C
44 17-01-2020 03:35:00 4.7 C 95 % 3.97 C
45 17-01-2020 03:40:00 4.7 C 95 % 3.97 C
46 17-01-2020 03:45:00 4.6 C 95 % 3.87 C
47 17-01-2020 03:50:00 4.5 C 95 % 3.77 C
48 17-01-2020 03:55:00 4.5 C 96 % 3.92 C
49 17-01-2020 04:00:00 4.6 C 96 % 4.02 C
50 17-01-2020 04:05:00 4.7 C 96 % 4.12 C
Sensor: Nr:Datum:Temp:Feuchte:Taupunkt:
Aussen-T/F 51 17-01-2020 04:10:00 4.7 C 96 % 4.12 C
52 17-01-2020 04:15:00 4.7 C 96 % 4.12 C
53 17-01-2020 04:20:00 4.6 C 96 % 4.02 C
54 17-01-2020 04:25:00 4.6 C 96 % 4.02 C
55 17-01-2020 04:30:00 4.6 C 96 % 4.02 C
56 17-01-2020 04:35:00 4.6 C 96 % 4.02 C
57 17-01-2020 04:40:00 4.6 C 96 % 4.02 C
58 17-01-2020 04:45:00 4.5 C 96 % 3.92 C
59 17-01-2020 04:50:00 4.4 C 96 % 3.82 C
60 17-01-2020 04:55:00 4.4 C 96 % 3.82 C
61 17-01-2020 05:00:00 4.3 C 96 % 3.72 C
62 17-01-2020 05:05:00 4.3 C 96 % 3.72 C
63 17-01-2020 05:10:00 4.1 C 96 % 3.52 C
64 17-01-2020 05:15:00 4.1 C 96 % 3.52 C
65 17-01-2020 05:20:00 3.9 C 96 % 3.32 C
66 17-01-2020 05:25:00 3.9 C 96 % 3.32 C
67 17-01-2020 05:30:00 3.8 C 96 % 3.22 C
68 17-01-2020 05:35:00 3.8 C 96 % 3.22 C
69 17-01-2020 05:40:00 3.7 C 96 % 3.12 C
70 17-01-2020 05:45:00 3.6 C 96 % 3.02 C
71 17-01-2020 05:50:00 3.5 C 96 % 2.92 C
72 17-01-2020 05:55:00 3.4 C 96 % 2.82 C
73 17-01-2020 06:00:00 3.4 C 96 % 2.82 C
74 17-01-2020 06:05:00 3.3 C 96 % 2.72 C
75 17-01-2020 06:10:00 3.3 C 96 % 2.72 C
Sensor: Nr:Datum:Temp:Feuchte:Taupunkt:
Aussen-T/F 76 17-01-2020 06:15:00 3.2 C 96 % 2.63 C
77 17-01-2020 06:20:00 3.2 C 96 % 2.63 C
78 17-01-2020 06:25:00 3.1 C 96 % 2.53 C
79 17-01-2020 06:30:00 3.1 C 96 % 2.53 C
80 17-01-2020 06:35:00 3.1 C 96 % 2.53 C
81 17-01-2020 06:40:00 2.9 C 96 % 2.33 C
82 17-01-2020 06:45:00 3 C 96 % 2.43 C
83 17-01-2020 06:50:00 2.9 C 96 % 2.33 C
84 17-01-2020 06:55:00 2.8 C 96 % 2.23 C
85 17-01-2020 07:00:00 2.8 C 96 % 2.23 C
86 17-01-2020 07:05:00 2.8 C 96 % 2.23 C
87 17-01-2020 07:10:00 2.7 C 96 % 2.13 C
88 17-01-2020 07:15:00 2.6 C 96 % 2.03 C
89 17-01-2020 07:20:00 2.6 C 96 % 2.03 C
90 17-01-2020 07:25:00 2.6 C 96 % 2.03 C
91 17-01-2020 07:30:00 2.5 C 96 % 1.93 C
92 17-01-2020 07:35:00 2.4 C 96 % 1.83 C
93 17-01-2020 07:40:00 2.4 C 96 % 1.83 C
94 17-01-2020 07:45:00 2.3 C 96 % 1.73 C
95 17-01-2020 07:50:00 2.4 C 96 % 1.83 C
96 17-01-2020 07:55:00 2.4 C 96 % 1.83 C
97 17-01-2020 08:00:00 2.5 C 97 % 2.07 C
98 17-01-2020 08:05:00 2.6 C 97 % 2.17 C
99 17-01-2020 08:10:00 2.7 C 97 % 2.27 C
100 17-01-2020 08:15:00 2.8 C 97 % 2.37 C
Sensor: Nr:Datum:Temp:Feuchte:Taupunkt:
Aussen-T/F 101 17-01-2020 08:20:00 2.9 C 97 % 2.47 C
102 17-01-2020 08:25:00 2.9 C 97 % 2.47 C
103 17-01-2020 08:30:00 2.9 C 97 % 2.47 C
104 17-01-2020 08:35:00 2.9 C 97 % 2.47 C
105 17-01-2020 08:40:00 2.9 C 97 % 2.47 C
106 17-01-2020 08:45:00 2.9 C 97 % 2.47 C
107 17-01-2020 08:50:00 3 C 97 % 2.57 C
108 17-01-2020 08:55:00 3.1 C 97 % 2.67 C
109 17-01-2020 09:00:00 3.1 C 97 % 2.67 C
110 17-01-2020 09:05:00 3.1 C 97 % 2.67 C
111 17-01-2020 09:10:00 3.2 C 97 % 2.77 C
112 17-01-2020 09:15:00 3.2 C 97 % 2.77 C
113 17-01-2020 09:20:00 3.2 C 97 % 2.77 C
114 17-01-2020 09:25:00 3.2 C 97 % 2.77 C
115 17-01-2020 09:30:00 3.1 C 97 % 2.67 C
116 17-01-2020 09:35:00 3.1 C 97 % 2.67 C
117 17-01-2020 09:40:00 3.1 C 97 % 2.67 C
118 17-01-2020 09:45:00 3.3 C 97 % 2.87 C
119 17-01-2020 09:50:00 3.4 C 97 % 2.97 C
120 17-01-2020 09:55:00 3.5 C 97 % 3.07 C
121 17-01-2020 10:00:00 3.6 C 97 % 3.17 C
122 17-01-2020 10:05:00 3.7 C 97 % 3.27 C
123 17-01-2020 10:10:00 3.8 C 97 % 3.37 C
124 17-01-2020 10:15:00 3.9 C 97 % 3.47 C
125 17-01-2020 10:20:00 3.9 C 97 % 3.47 C
Sensor: Nr:Datum:Temp:Feuchte:Taupunkt:
Aussen-T/F 126 17-01-2020 10:25:00 4.1 C 97 % 3.67 C
127 17-01-2020 10:30:00 4.1 C 97 % 3.67 C
128 17-01-2020 10:35:00 4.2 C 97 % 3.77 C
129 17-01-2020 10:40:00 4.2 C 97 % 3.77 C
130 17-01-2020 10:45:00 4.3 C 97 % 3.87 C
131 17-01-2020 10:50:00 4.4 C 97 % 3.97 C
132 17-01-2020 10:55:00 4.4 C 97 % 3.97 C
133 17-01-2020 11:00:00 4.6 C 97 % 4.17 C
134 17-01-2020 11:05:00 4.7 C 97 % 4.27 C
135 17-01-2020 11:10:00 4.8 C 97 % 4.37 C
136 17-01-2020 11:15:00 4.8 C 97 % 4.37 C
137 17-01-2020 11:20:00 4.9 C 97 % 4.46 C
138 17-01-2020 11:25:00 4.9 C 97 % 4.46 C
139 17-01-2020 11:30:00 5 C 97 % 4.56 C
140 17-01-2020 11:35:00 5.2 C 97 % 4.76 C
141 17-01-2020 11:40:00 5.4 C 98 % 5.11 C
142 17-01-2020 11:45:00 5.6 C 97 % 5.16 C
143 17-01-2020 11:50:00 5.7 C 98 % 5.41 C
144 17-01-2020 11:55:00 5.8 C 97 % 5.36 C
145 17-01-2020 12:00:00 5.8 C 97 % 5.36 C
146 17-01-2020 12:05:00 5.9 C 97 % 5.46 C
147 17-01-2020 12:10:00 6.1 C 97 % 5.66 C
148 17-01-2020 12:15:00 6.3 C 97 % 5.86 C
149 17-01-2020 12:20:00 6.4 C 97 % 5.96 C
150 17-01-2020 12:25:00 6.6 C 97 % 6.16 C
Sensor: Nr:Datum:Temp:Feuchte:Taupunkt:
Aussen-T/F 151 17-01-2020 12:30:00 6.7 C 97 % 6.26 C
152 17-01-2020 12:35:00 6.8 C 97 % 6.36 C
153 17-01-2020 12:40:00 6.8 C 97 % 6.36 C
154 17-01-2020 12:45:00 7 C 97 % 6.56 C
155 17-01-2020 12:50:00 7.2 C 96 % 6.61 C
156 17-01-2020 12:55:00 7.2 C 96 % 6.61 C
157 17-01-2020 13:00:00 7.3 C 96 % 6.71 C
158 17-01-2020 13:05:00 7.4 C 96 % 6.8 C
159 17-01-2020 13:10:00 7.7 C 96 % 7.1 C
160 17-01-2020 13:15:00 7.7 C 95 % 6.95 C
161 17-01-2020 13:20:00 7.8 C 96 % 7.2 C
162 17-01-2020 13:25:00 8.1 C 95 % 7.35 C
163 17-01-2020 13:30:00 8.2 C 96 % 7.6 C
164 17-01-2020 13:35:00 8.4 C 95 % 7.65 C
165 17-01-2020 13:40:00 8.7 C 94 % 7.79 C
166 17-01-2020 13:45:00 8.8 C 93 % 7.73 C
167 17-01-2020 13:50:00 9 C 92 % 7.77 C
168 17-01-2020 13:55:00 9.2 C 91 % 7.81 C
169 17-01-2020 14:00:00 9.3 C 91 % 7.91 C
170 17-01-2020 14:05:00 9.4 C 91 % 8.01 C
171 17-01-2020 14:10:00 9.6 C 91 % 8.21 C
172 17-01-2020 14:15:00 9.7 C 89 % 7.98 C
173 17-01-2020 14:20:00 9.8 C 88 % 7.91 C
174 17-01-2020 14:25:00 9.9 C 88 % 8.01 C
175 17-01-2020 14:30:00 9.9 C 89 % 8.17 C
Sensor: Nr:Datum:Temp:Feuchte:Taupunkt:
Aussen-T/F 176 17-01-2020 14:35:00 9.9 C 88 % 8.01 C
177 17-01-2020 14:40:00 9.9 C 89 % 8.17 C
178 17-01-2020 14:45:00 9.9 C 89 % 8.17 C
179 17-01-2020 14:50:00 9.8 C 90 % 8.24 C
180 17-01-2020 14:55:00 9.8 C 90 % 8.24 C
181 17-01-2020 15:00:00 9.7 C 90 % 8.14 C
182 17-01-2020 15:05:00 9.6 C 91 % 8.21 C
183 17-01-2020 15:10:00 9.5 C 91 % 8.11 C
184 17-01-2020 15:15:00 9.4 C 91 % 8.01 C
185 17-01-2020 15:20:00 9.3 C 92 % 8.07 C
186 17-01-2020 15:25:00 9.3 C 92 % 8.07 C
187 17-01-2020 15:30:00 9.2 C 92 % 7.97 C
188 17-01-2020 15:35:00 9.2 C 92 % 7.97 C
189 17-01-2020 15:40:00 9.2 C 92 % 7.97 C
190 17-01-2020 15:45:00 9.2 C 92 % 7.97 C
191 17-01-2020 15:50:00 9.1 C 92 % 7.87 C
192 17-01-2020 15:55:00 9.1 C 92 % 7.87 C
193 17-01-2020 16:00:00 9 C 92 % 7.77 C
194 17-01-2020 16:05:00 8.9 C 93 % 7.83 C
195 17-01-2020 16:10:00 8.9 C 93 % 7.83 C
196 17-01-2020 16:15:00 8.9 C 93 % 7.83 C
197 17-01-2020 16:20:00 8.9 C 92 % 7.67 C
198 17-01-2020 16:25:00 8.9 C 92 % 7.67 C
199 17-01-2020 16:30:00 8.9 C 93 % 7.83 C
200 17-01-2020 16:35:00 8.8 C 93 % 7.73 C
Sensor: Nr:Datum:Temp:Feuchte:Taupunkt:
Aussen-T/F 201 17-01-2020 16:40:00 8.8 C 93 % 7.73 C
202 17-01-2020 16:45:00 8.8 C 93 % 7.73 C
203 17-01-2020 16:50:00 8.7 C 93 % 7.63 C
204 17-01-2020 16:55:00 8.7 C 93 % 7.63 C
205 17-01-2020 17:00:00 8.7 C 93 % 7.63 C
206 17-01-2020 17:05:00 8.6 C 93 % 7.53 C
207 17-01-2020 17:10:00 8.7 C 94 % 7.79 C
208 17-01-2020 17:15:00 8.7 C 94 % 7.79 C
209 17-01-2020 17:20:00 8.9 C 93 % 7.83 C
210 17-01-2020 17:25:00 9 C 93 % 7.93 C
211 17-01-2020 17:30:00 9 C 92 % 7.77 C
212 17-01-2020 17:35:00 9 C 92 % 7.77 C
213 17-01-2020 17:40:00 9 C 92 % 7.77 C
214 17-01-2020 17:45:00 8.9 C 92 % 7.67 C
215 17-01-2020 17:50:00 8.8 C 92 % 7.57 C
216 17-01-2020 17:55:00 8.8 C 92 % 7.57 C
217 17-01-2020 18:00:00 8.9 C 92 % 7.67 C
218 17-01-2020 18:05:00 8.9 C 91 % 7.51 C
219 17-01-2020 18:10:00 9 C 91 % 7.61 C
220 17-01-2020 18:15:00 9 C 91 % 7.61 C
221 17-01-2020 18:20:00 8.9 C 91 % 7.51 C
222 17-01-2020 18:25:00 8.9 C 91 % 7.51 C
223 17-01-2020 18:30:00 8.9 C 91 % 7.51 C
224 17-01-2020 18:35:00 8.9 C 91 % 7.51 C
225 17-01-2020 18:40:00 8.8 C 91 % 7.41 C
Sensor: Nr:Datum:Temp:Feuchte:Taupunkt:
Aussen-T/F 226 17-01-2020 18:45:00 8.7 C 91 % 7.32 C
227 17-01-2020 18:50:00 8.6 C 91 % 7.22 C
228 17-01-2020 18:55:00 8.4 C 91 % 7.02 C
229 17-01-2020 19:00:00 8.3 C 91 % 6.92 C
230 17-01-2020 19:05:00 8.1 C 91 % 6.72 C
231 17-01-2020 19:10:00 7.9 C 92 % 6.68 C
232 17-01-2020 19:15:00 7.8 C 92 % 6.58 C
233 17-01-2020 19:20:00 7.8 C 91 % 6.43 C
234 17-01-2020 19:25:00 7.6 C 91 % 6.23 C
235 17-01-2020 19:30:00 7.3 C 91 % 5.93 C
236 17-01-2020 19:35:00 7.2 C 92 % 5.99 C
237 17-01-2020 19:40:00 7.1 C 92 % 5.89 C
238 17-01-2020 19:45:00 6.9 C 92 % 5.69 C
239 17-01-2020 19:50:00 6.9 C 93 % 5.85 C
240 17-01-2020 19:55:00 6.9 C 93 % 5.85 C
241 17-01-2020 20:00:00 6.9 C 94 % 6 C
242 17-01-2020 20:05:00 6.9 C 94 % 6 C
243 17-01-2020 20:10:00 6.9 C 94 % 6 C
244 17-01-2020 20:15:00 7 C 94 % 6.1 C
245 17-01-2020 20:20:00 7.1 C 94 % 6.2 C
246 17-01-2020 20:25:00 7.2 C 95 % 6.45 C
247 17-01-2020 20:30:00 7.3 C 94 % 6.4 C
248 17-01-2020 20:35:00 7.4 C 94 % 6.5 C
249 17-01-2020 20:40:00 7.5 C 93 % 6.44 C
250 17-01-2020 20:45:00 7.6 C 92 % 6.39 C
Sensor: Nr:Datum:Temp:Feuchte:Taupunkt:
Aussen-T/F 251 17-01-2020 20:50:00 7.7 C 90 % 6.17 C
252 17-01-2020 20:55:00 7.8 C 90 % 6.27 C
253 17-01-2020 21:00:00 7.9 C 89 % 6.2 C
254 17-01-2020 21:05:00 7.9 C 88 % 6.04 C
255 17-01-2020 21:10:00 7.9 C 88 % 6.04 C
256 17-01-2020 21:15:00 8 C 87 % 5.97 C
257 17-01-2020 21:20:00 7.9 C 87 % 5.87 C
258 17-01-2020 21:25:00 7.8 C 87 % 5.78 C
259 17-01-2020 21:30:00 7.6 C 87 % 5.58 C
260 17-01-2020 21:35:00 7.4 C 87 % 5.38 C
261 17-01-2020 21:40:00 7.4 C 86 % 5.22 C
262 17-01-2020 21:45:00 7.3 C 86 % 5.12 C
263 17-01-2020 21:50:00 7.2 C 86 % 5.02 C
264 17-01-2020 21:55:00 7.1 C 86 % 4.92 C
265 17-01-2020 22:00:00 6.9 C 86 % 4.72 C
266 17-01-2020 22:05:00 6.9 C 86 % 4.72 C
267 17-01-2020 22:10:00 6.7 C 86 % 4.53 C
268 17-01-2020 22:15:00 6.6 C 86 % 4.43 C
269 17-01-2020 22:20:00 6.4 C 86 % 4.23 C
270 17-01-2020 22:25:00 6.2 C 86 % 4.04 C
271 17-01-2020 22:30:00 5.9 C 87 % 3.91 C
272 17-01-2020 22:35:00 5.7 C 88 % 3.87 C
273 17-01-2020 22:40:00 5.5 C 88 % 3.67 C
274 17-01-2020 22:45:00 5.4 C 89 % 3.74 C
275 17-01-2020 22:50:00 5.3 C 89 % 3.64 C
Sensor: Nr:Datum:Temp:Feuchte:Taupunkt:
Aussen-T/F 276 17-01-2020 22:55:00 5.2 C 90 % 3.7 C
277 17-01-2020 23:00:00 5.1 C 90 % 3.6 C
278 17-01-2020 23:05:00 4.9 C 90 % 3.4 C
279 17-01-2020 23:10:00 4.8 C 90 % 3.3 C
280 17-01-2020 23:15:00 4.7 C 91 % 3.36 C
281 17-01-2020 23:20:00 4.7 C 91 % 3.36 C
282 17-01-2020 23:25:00 4.6 C 91 % 3.26 C
283 17-01-2020 23:30:00 4.6 C 91 % 3.26 C
284 17-01-2020 23:35:00 4.6 C 92 % 3.42 C
285 17-01-2020 23:40:00 4.6 C 92 % 3.42 C
286 17-01-2020 23:45:00 4.5 C 92 % 3.32 C
287 17-01-2020 23:50:00 4.4 C 92 % 3.22 C
288 17-01-2020 23:55:00 4.3 C 92 % 3.12 C

Legende:
   Min
   Max


Maximal/Minimal-Werte vom 17.01.2020 - 17.01.2020

Sensor Min Max Avg
Temp
(Aussen-T/F)
2.3 °C
17-01-2020  07:45:00
9.9 °C
17-01-2020  14:25:00
6.04 °C
Feuchte
(Aussen-T/F)
86 %
17-01-2020  21:40:00
98 %
17-01-2020  11:40:00
93.7 %
Taupunkt
(Aussen-T/F)
1.73 C
17-01-2020  07:45:00
8.24 C
17-01-2020  14:50:00
5.07 C

Die Daten stammen von einer Davis Vantage Pro 2 Wetter-Station und werden unter Linux mit der Software wview2wettercgi und aufbereitet. Alle Angaben erfolgen ohne Gewähr für ihre Vollständigkeit oder Richtigkeit.
Kontakt: Rainer Krienke krienke@uni-koblenz.de . Meine Webseiten an der Uni Koblenz oder privat.
Version: $Revision: 0.78 $